Portada
METAR-TAF:

METAR-TAF

Aeroports :

Joensuu, Finlàndia

latitud: 62-40N, longitud: 029-38E, altitud: 119 m

Observació

L'informe es va fer fa 17 minuts, a les 19:50 UTC
Vent 3 kt del Nord/Nord-Est
Temperatura 9°C
Humitat 76%
Pressió 1024 hPa
Visibilitat 10 km o més
sense núvols per sota de 1500 mi sense presència de cumulonimbus.

METAR: EFJO 011950Z AUTO 02003KT CAVOK 09/05 Q1024

Hora: 23:07 (20:07 UTC)


TAF: manca

Observacions i pronòstics meteorològics de més de 4000 aeroports (METAR i TAF).

Les estacions disponibles són els punts grocs i vermells al mapa.

Posi el ratolí al punt desitjat per veure el nom de l'estació.

Feu clic per veure les observacions i els pronòstics meteorològics.

Per canviar el mapa: feu clic els botons verds amb una creu de color negre per apropar; al botó verd amb un guió per allunyar la imatge; o en les fletxes verdes per a mapes adjacents.


METAR-TAF: